Time;durP1;ratioP1;P1;durP2;ratioP2;P2;SDS_P1;SDS_P2;PMS_P1;PMS_P2;Temp;Humidity;BMP_temperature;BMP_pressure;BME280_temperature;BME280_humidity;BME280_pressure;Samples;Min_cycle;Max_cycle;Signal;HPM_P1;HPM_P2
2021/12/25 00:02:26;;;;;;;1.80;1.70;;;;;;;18.52;46.92;96279.53;4878022;29;20249;-79
2021/12/25 00:04:53;;;;;;;2.10;1.93;;;;;;;18.50;47.16;96258.31;4862410;29;20238;-80
2021/12/25 00:07:20;;;;;;;2.13;1.93;;;;;;;17.41;46.80;96074.56;4878314;29;20752;-81
2021/12/25 00:09:46;;;;;;;2.30;2.10;;;;;;;17.81;46.92;96166.94;4862158;29;20792;-80
2021/12/25 00:12:13;;;;;;;2.13;2.00;;;;;;;17.97;47.00;96168.16;4861873;29;20681;-79
2021/12/25 00:14:39;;;;;;;1.87;1.77;;;;;;;17.97;47.11;96168.16;4877073;29;20321;-80
2021/12/25 00:17:06;;;;;;;2.17;2.00;;;;;;;18.87;47.13;96326.94;4861992;29;20306;-80
2021/12/25 00:19:32;;;;;;;2.00;1.90;;;;;;;18.85;46.90;96318.41;4877316;29;20680;-80
2021/12/25 00:22:00;;;;;;;2.03;1.93;;;;;;;16.84;46.76;95970.03;4877334;29;20301;-80
2021/12/25 00:24:26;;;;;;;2.40;2.20;;;;;;;18.86;46.82;96315.88;4893971;29;20250;-80
2021/12/25 00:27:01;;;;;;;2.30;2.10;;;;;;;18.52;46.94;96249.00;4894302;29;20241;-76
2021/12/25 00:34:58;;;;;;;2.00;1.90;;;;;;;17.23;47.12;96015.75;4813722;29;20346;-81
2021/12/25 00:37:26;;;;;;;2.17;1.97;;;;;;;18.23;47.16;96183.94;4869157;29;20245;-80
2021/12/25 00:39:54;;;;;;;2.30;2.10;;;;;;;18.26;46.82;96207.75;4862405;29;20234;-79
2021/12/25 00:42:22;;;;;;;2.27;2.07;;;;;;;18.46;46.97;96238.69;4862343;29;20326;-77
2021/12/25 00:44:49;;;;;;;2.13;2.00;;;;;;;17.89;46.79;96140.00;4877216;29;20716;-80
2021/12/25 00:47:16;;;;;;;2.33;2.13;;;;;;;18.50;47.08;96246.44;4861639;29;20214;-76
2021/12/25 00:49:42;;;;;;;1.80;1.70;;;;;;;18.54;47.15;96260.94;4876915;29;20269;-78
2021/12/25 00:52:09;;;;;;;2.10;1.97;;;;;;;18.51;47.13;96252.38;4861533;29;20657;-81
2021/12/25 00:54:36;;;;;;;2.50;2.30;;;;;;;18.38;47.39;96236.00;4861395;29;20329;-79
2021/12/25 00:57:05;;;;;;;2.03;1.90;;;;;;;17.85;47.06;96138.22;4861996;29;20744;-80
2021/12/25 00:59:31;;;;;;;2.30;2.10;;;;;;;18.79;47.31;96295.38;4861823;29;20250;-80
2021/12/25 01:01:58;;;;;;;2.10;1.90;;;;;;;18.79;47.45;96293.69;4877059;29;20814;-80
2021/12/25 01:07:00;;;;;;;2.20;2.10;;;;;;;14.71;47.08;95659.09;3167799;27;20238;-88
2021/12/25 01:09:27;;;;;;;1.90;1.80;;;;;;;13.76;46.91;95507.47;4896317;29;20219;-89
2021/12/25 01:11:54;;;;;;;2.40;2.20;;;;;;;12.79;46.83;95283.66;4887165;29;20187;-88
2021/12/25 01:14:41;;;;;;;1.90;1.80;;;;;;;12.68;47.09;95303.53;4906454;29;20246;-86
2021/12/25 01:17:40;;;;;;;2.10;2.00;;;;;;;15.04;47.37;95742.56;4878294;29;20187;-89
2021/12/25 01:26:48;;;;;;;2.00;1.90;;;;;;;17.44;47.48;96077.19;4862800;29;20287;-82
2021/12/25 01:49:36;;;;;;;2.27;2.07;;;;;;;17.84;47.03;96136.53;4847135;29;20724;-83
2021/12/25 01:52:03;;;;;;;2.10;2.00;;;;;;;17.88;47.57;96135.75;4842538;29;20768;-83
2021/12/25 01:54:30;;;;;;;1.90;1.80;;;;;;;18.43;47.08;96236.97;4842067;29;20250;-81
2021/12/25 01:56:57;;;;;;;2.30;2.10;;;;;;;18.58;47.38;96259.31;4858128;29;20249;-82
2021/12/25 01:59:23;;;;;;;2.30;2.10;;;;;;;18.14;47.12;96189.69;4842458;29;20317;-83
2021/12/25 02:01:50;;;;;;;2.10;2.00;;;;;;;18.23;47.30;96196.66;4828225;29;20291;-84
2021/12/25 02:04:22;;;;;;;2.10;2.00;;;;;;;18.39;47.41;96230.13;4849405;29;20220;-82
2021/12/25 02:06:48;;;;;;;1.90;1.80;;;;;;;18.28;47.13;96231.53;4852657;29;20805;-83
2021/12/25 02:09:16;;;;;;;2.10;2.00;;;;;;;18.18;47.24;96202.50;4854189;29;20302;-83
2021/12/25 02:11:44;;;;;;;2.17;2.07;;;;;;;18.66;47.37;96273.06;4839210;29;20303;-81
2021/12/25 02:14:10;;;;;;;2.87;2.13;;;;;;;18.18;47.17;96214.38;4853839;29;20215;-83
2021/12/25 02:16:53;;;;;;;2.43;2.23;;;;;;;18.82;47.07;96309.03;4838813;29;20239;-81
2021/12/25 02:19:42;;;;;;;1.90;1.80;;;;;;;17.60;47.00;96092.81;4841127;29;20217;-82
2021/12/25 02:22:10;;;;;;;2.27;2.13;;;;;;;18.34;47.17;96213.84;4853957;29;20211;-84
2021/12/25 02:24:37;;;;;;;2.10;2.00;;;;;;;18.45;47.06;96235.31;4838672;29;20314;-80
2021/12/25 02:27:04;;;;;;;2.00;1.90;;;;;;;18.43;47.08;96225.94;4854298;29;20242;-83
2021/12/25 02:29:31;;;;;;;2.20;2.00;;;;;;;18.35;47.37;96215.56;4854692;29;20211;-82
2021/12/25 02:31:58;;;;;;;2.00;1.90;;;;;;;18.43;46.99;96229.34;4854148;29;20276;-83
2021/12/25 02:34:25;;;;;;;1.97;1.87;;;;;;;18.09;47.13;96181.97;4854137;29;20215;-83
2021/12/25 02:36:51;;;;;;;2.40;2.20;;;;;;;18.40;47.10;96248.75;4838571;29;20314;-83
2021/12/25 02:39:18;;;;;;;2.20;2.00;;;;;;;18.81;46.96;96297.16;4838819;29;20552;-84
2021/12/25 02:41:45;;;;;;;2.10;2.00;;;;;;;17.90;47.31;96140.88;4854204;29;20204;-82
2021/12/25 02:44:11;;;;;;;2.00;1.90;;;;;;;17.50;47.07;96078.16;4855263;29;20298;-83
2021/12/25 02:46:39;;;;;;;2.33;2.13;;;;;;;18.34;47.12;96213.84;4839086;29;20242;-84
2021/12/25 02:49:14;;;;;;;2.27;2.10;;;;;;;18.57;47.27;96263.56;4838790;29;20215;-83
2021/12/25 02:51:46;;;;;;;2.20;2.00;;;;;;;18.14;47.38;96189.69;4854064;29;20633;-83
2021/12/25 02:54:13;;;;;;;2.07;1.97;;;;;;;18.37;47.41;96221.56;4868958;29;20215;-84
2021/12/25 02:56:40;;;;;;;2.07;1.97;;;;;;;18.18;47.30;96199.09;4841667;29;20271;-83
2021/12/25 02:59:12;;;;;;;2.07;1.97;;;;;;;18.12;47.30;96174.41;4842296;29;20667;-83
2021/12/25 03:02:09;;;;;;;2.13;2.00;;;;;;;18.34;46.94;96205.34;4857539;29;20275;-83
2021/12/25 03:04:41;;;;;;;2.03;1.93;;;;;;;18.79;47.35;96277.56;4868165;29;20176;-88
2021/12/25 03:07:08;;;;;;;1.73;1.63;;;;;;;18.56;47.25;96246.56;4902304;29;20203;-89
2021/12/25 03:09:34;;;;;;;2.20;2.00;;;;;;;13.50;47.04;95374.72;4886557;29;20191;-90
2021/12/25 03:12:04;;;;;;;2.00;1.90;;;;;;;15.96;47.47;95789.63;4871791;29;20216;-90
2021/12/25 03:15:12;;;;;;;2.33;2.13;;;;;;;18.77;47.63;96269.06;4886461;29;20207;-90
2021/12/25 03:17:31;;;;;;;2.03;1.87;;;;;;;14.69;47.37;95693.63;4900170;29;20236;-90
2021/12/25 03:19:58;;;;;;;2.10;2.00;;;;;;;14.21;47.67;95535.63;4886542;29;20215;-90
2021/12/25 03:22:25;;;;;;;1.93;1.83;;;;;;;15.83;47.31;95852.63;4902023;29;20191;-90
2021/12/25 03:24:52;;;;;;;2.30;2.10;;;;;;;11.27;47.20;94987.44;4870953;29;20237;-89
2021/12/25 03:27:18;;;;;;;2.13;2.03;;;;;;;15.69;47.40;95737.50;4871004;29;20218;-90
2021/12/25 03:29:45;;;;;;;2.00;1.90;;;;;;;15.72;47.53;95748.53;4886465;29;20236;-86
2021/12/25 03:32:12;;;;;;;1.80;1.70;;;;;;;13.35;47.11;95340.69;4871340;29;20204;-89
2021/12/25 03:34:39;;;;;;;1.97;1.87;;;;;;;15.59;47.23;95717.84;4859074;29;20227;-83
2021/12/25 03:37:06;;;;;;;1.83;1.73;;;;;;;18.31;47.65;96187.50;4857087;29;20746;-83
2021/12/25 03:39:32;;;;;;;1.83;1.73;;;;;;;18.18;47.21;96156.72;4857063;29;20309;-83
2021/12/25 03:41:59;;;;;;;1.93;1.83;;;;;;;18.12;47.36;96140.50;4872395;29;20315;-83
2021/12/25 03:44:26;;;;;;;2.03;1.93;;;;;;;18.46;47.40;96188.69;4856665;29;20294;-83
2021/12/25 03:46:54;;;;;;;1.80;1.70;;;;;;;18.82;47.06;96262.34;4852398;29;20239;-84
2021/12/25 03:49:35;;;;;;;1.87;1.77;;;;;;;18.31;47.29;96169.69;4856508;29;20639;-84
2021/12/25 03:57:44;;;;;;;2.03;1.93;;;;;;;18.13;46.65;96121.88;4856614;29;20239;-83
2021/12/25 04:00:15;;;;;;;1.87;1.77;;;;;;;18.42;47.06;96166.59;4857135;29;20466;-83
2021/12/25 04:02:53;;;;;;;2.00;1.90;;;;;;;18.40;47.25;96159.72;4842005;29;20247;-84
2021/12/25 04:05:25;;;;;;;2.10;1.90;;;;;;;17.80;47.09;96062.75;4847228;29;20234;-83
2021/12/25 04:08:05;;;;;;;1.80;1.70;;;;;;;18.50;47.06;96184.53;4873538;29;20254;-83
2021/12/25 04:10:35;;;;;;;2.10;2.00;;;;;;;18.29;47.65;96136.59;4861629;29;20483;-84
2021/12/25 04:13:07;;;;;;;1.80;1.70;;;;;;;18.33;47.19;96147.69;4844298;29;20337;-85
2021/12/25 04:15:34;;;;;;;1.90;1.80;;;;;;;18.13;47.24;96117.66;4860245;29;20223;-82
2021/12/25 04:18:01;;;;;;;2.00;1.90;;;;;;;17.94;47.14;96085.06;4874613;29;20214;-84
2021/12/25 04:20:28;;;;;;;1.93;1.83;;;;;;;18.29;47.09;96149.31;4844096;29;20640;-83
2021/12/25 04:23:00;;;;;;;2.30;2.10;;;;;;;18.40;47.31;96165.69;4843990;29;20473;-83
2021/12/25 04:25:27;;;;;;;1.97;1.87;;;;;;;18.69;47.57;96206.97;4845136;29;20637;-84
2021/12/25 04:27:57;;;;;;;2.00;1.90;;;;;;;18.44;47.19;96174.25;4874475;29;20270;-83
2021/12/25 04:30:39;;;;;;;1.80;1.70;;;;;;;18.45;46.98;96179.38;4844607;29;20254;-82
2021/12/25 05:03:39;;;;;;;2.10;1.90;;;;;;;18.16;47.12;96107.56;4865498;29;20642;-84
2021/12/25 05:06:01;;;;;;;2.10;2.00;;;;;;;18.49;47.38;96165.00;4893525;29;20300;-83
2021/12/25 05:08:28;;;;;;;2.00;1.90;;;;;;;18.16;47.16;96106.69;4877512;29;20214;-83
2021/12/25 05:10:54;;;;;;;1.70;1.60;;;;;;;18.30;47.12;96133.25;4876972;29;20317;-83
2021/12/25 05:13:21;;;;;;;1.90;1.80;;;;;;;18.18;47.53;96108.41;4860598;29;20241;-82
2021/12/25 05:15:47;;;;;;;2.10;2.00;;;;;;;18.66;47.15;96186.53;4861608;29;20313;-84
2021/12/25 05:18:14;;;;;;;1.80;1.70;;;;;;;18.16;47.21;96102.47;4893183;29;20590;-84
2021/12/25 05:20:41;;;;;;;1.97;1.87;;;;;;;17.91;47.35;96069.75;4846407;29;20285;-83
2021/12/25 05:23:08;;;;;;;1.70;1.60;;;;;;;18.24;47.18;96121.25;4846483;29;20225;-83
2021/12/25 05:25:35;;;;;;;2.00;1.90;;;;;;;18.78;47.41;96230.03;4861553;29;20257;-83
2021/12/25 05:28:02;;;;;;;2.03;1.93;;;;;;;18.30;47.42;96117.13;4861572;29;20294;-82
2021/12/25 05:30:29;;;;;;;1.80;1.70;;;;;;;18.27;47.28;96120.47;4861554;29;20317;-83
2021/12/25 05:32:56;;;;;;;1.97;1.87;;;;;;;17.59;47.53;96006.41;4876768;29;20684;-79
2021/12/25 05:35:23;;;;;;;1.80;1.70;;;;;;;18.10;47.34;96098.94;4861083;29;20807;-83
2021/12/25 05:37:56;;;;;;;1.90;1.80;;;;;;;18.14;47.44;96085.44;4861533;29;20246;-83
2021/12/25 05:40:24;;;;;;;1.80;1.70;;;;;;;18.42;47.40;96132.66;4847692;29;20317;-83
2021/12/25 05:42:50;;;;;;;1.70;1.60;;;;;;;18.33;47.62;96119.72;4876597;29;20258;-81
2021/12/25 05:45:17;;;;;;;1.77;1.67;;;;;;;18.44;47.49;96131.84;4860831;29;20266;-83
2021/12/25 05:47:44;;;;;;;2.07;1.93;;;;;;;18.76;47.42;96186.75;4860873;29;20680;-84
2021/12/25 05:50:10;;;;;;;1.87;1.77;;;;;;;17.66;47.66;96001.47;4861451;29;20736;-83
2021/12/25 05:52:37;;;;;;;2.07;1.97;;;;;;;17.98;47.29;96055.47;4860892;29;20681;-82
2021/12/25 05:55:03;;;;;;;1.77;1.67;;;;;;;18.15;47.63;96089.72;4860863;29;20670;-83
2021/12/25 05:57:30;;;;;;;1.70;1.60;;;;;;;18.09;47.56;96074.34;4861199;29;20241;-84
2021/12/25 05:59:57;;;;;;;1.67;1.57;;;;;;;18.08;47.62;96073.47;4861011;29;20237;-85
2021/12/25 06:02:23;;;;;;;1.97;1.87;;;;;;;18.22;47.39;96109.34;4845761;29;20293;-83
2021/12/25 06:04:50;;;;;;;1.70;1.60;;;;;;;18.74;47.65;96198.56;4876190;29;20312;-83
2021/12/25 06:07:17;;;;;;;1.90;1.80;;;;;;;17.98;47.42;96076.69;4893220;29;20982;-82
2021/12/25 06:09:43;;;;;;;1.77;1.67;;;;;;;18.43;47.64;96158.13;4845477;29;20636;-83
2021/12/25 06:12:11;;;;;;;1.50;1.40;;;;;;;18.52;47.37;96181.19;4892679;29;20258;-83
2021/12/25 06:14:38;;;;;;;2.70;1.60;;;;;;;18.40;48.24;96152.09;4891500;29;20217;-84
2021/12/25 06:17:04;;;;;;;1.90;1.80;;;;;;;18.33;47.61;96142.63;4845766;29;20323;-81
2021/12/25 06:19:31;;;;;;;1.90;1.80;;;;;;;18.36;47.20;96152.84;4845616;29;20288;-83
2021/12/25 06:21:57;;;;;;;1.73;1.63;;;;;;;18.35;47.06;96153.69;4860783;29;20298;-83
2021/12/25 06:24:26;;;;;;;2.10;1.90;;;;;;;17.82;47.54;96064.47;4845321;29;20234;-83
2021/12/25 06:26:52;;;;;;;1.70;1.60;;;;;;;18.48;47.34;96187.06;4846303;29;20704;-83
2021/12/25 06:29:19;;;;;;;1.70;1.60;;;;;;;18.30;47.47;96162.91;4860138;29;20301;-83
2021/12/25 06:31:46;;;;;;;2.17;1.87;;;;;;;18.40;47.74;96167.38;4859953;29;20230;-83
2021/12/25 06:34:13;;;;;;;1.77;1.67;;;;;;;16.80;47.37;95888.75;4860452;29;20214;-83
2021/12/25 06:36:40;;;;;;;1.70;1.60;;;;;;;17.84;47.68;96077.22;4861199;29;20286;-83
2021/12/25 06:39:11;;;;;;;1.80;1.70;;;;;;;18.35;47.44;96156.22;4875868;29;20301;-84
2021/12/25 06:41:37;;;;;;;1.67;1.57;;;;;;;18.05;47.23;96103.06;4846383;29;20241;-79
2021/12/25 06:44:04;;;;;;;1.80;1.70;;;;;;;18.47;47.67;96177.69;4860282;29;20300;-83
2021/12/25 06:46:31;;;;;;;1.70;1.60;;;;;;;17.41;47.58;95995.84;4860647;29;20286;-83
2021/12/25 06:48:57;;;;;;;1.90;1.80;;;;;;;17.96;47.46;96082.53;4860352;29;20246;-83
2021/12/25 06:51:24;;;;;;;1.80;1.70;;;;;;;18.02;47.72;96101.31;4845182;29;20257;-84
2021/12/25 06:53:50;;;;;;;1.70;1.60;;;;;;;18.44;47.67;96164.91;4844936;29;20297;-83
2021/12/25 06:56:18;;;;;;;1.80;1.70;;;;;;;18.26;47.76;96143.34;4875717;29;20317;-83
2021/12/25 06:58:44;;;;;;;1.83;1.73;;;;;;;18.49;47.74;96170.97;4845952;29;20264;-83
2021/12/25 07:01:11;;;;;;;1.63;1.53;;;;;;;18.32;47.67;96140.91;4860325;29;20277;-83
2021/12/25 07:03:38;;;;;;;1.80;1.70;;;;;;;18.73;47.90;96209.59;4837260;29;20669;-79
2021/12/25 07:06:04;;;;;;;1.70;1.60;;;;;;;18.55;47.87;96191.44;4874230;29;20337;-85
2021/12/25 07:08:31;;;;;;;1.87;1.77;;;;;;;18.55;47.76;96196.53;4835454;29;20211;-83
2021/12/25 07:10:58;;;;;;;1.70;1.60;;;;;;;18.15;47.74;96113.44;4856981;29;20233;-82
2021/12/25 07:13:24;;;;;;;1.70;1.60;;;;;;;18.73;47.43;96206.19;4856535;29;20689;-83
2021/12/25 07:15:51;;;;;;;1.90;1.80;;;;;;;18.27;47.48;96127.25;4871819;29;20258;-83
2021/12/25 07:18:17;;;;;;;1.90;1.80;;;;;;;18.20;47.59;96129.66;4856952;29;20211;-83
2021/12/25 07:20:48;;;;;;;1.80;1.70;;;;;;;18.13;47.76;96099.88;4856744;29;20293;-84
2021/12/25 07:23:15;;;;;;;1.80;1.70;;;;;;;18.18;47.73;96110.97;4858012;29;20298;-83
2021/12/25 07:25:42;;;;;;;1.70;1.60;;;;;;;18.42;47.84;96143.69;4856646;29;20323;-84
2021/12/25 07:28:08;;;;;;;1.73;1.63;;;;;;;18.27;47.74;96118.78;4857027;29;20299;-84
2021/12/25 07:30:35;;;;;;;1.80;1.70;;;;;;;18.08;47.61;96087.88;4856685;29;20657;-81
2021/12/25 07:33:02;;;;;;;1.77;1.67;;;;;;;18.21;47.79;96105.94;4857134;29;20322;-84
2021/12/25 07:35:29;;;;;;;1.70;1.60;;;;;;;18.50;47.35;96176.91;4856828;29;20258;-83
2021/12/25 07:37:56;;;;;;;1.50;1.40;;;;;;;18.44;47.72;96146.28;4856608;29;20269;-83
2021/12/25 07:40:22;;;;;;;1.80;1.70;;;;;;;18.46;47.35;96149.69;4873458;29;20263;-84
2021/12/25 07:42:49;;;;;;;1.90;1.80;;;;;;;18.15;47.36;96100.72;4874569;29;20218;-84
2021/12/25 07:45:16;;;;;;;1.80;1.70;;;;;;;18.18;47.25;96120.28;4859492;29;20266;-83
2021/12/25 07:47:48;;;;;;;1.80;1.70;;;;;;;18.03;47.28;96086.94;4845052;29;20215;-83
2021/12/25 07:50:15;;;;;;;1.63;1.53;;;;;;;18.46;47.52;96153.09;4860900;29;20206;-83
2021/12/25 07:52:41;;;;;;;1.90;1.80;;;;;;;18.02;47.09;96086.06;4859989;29;20298;-83
2021/12/25 07:55:08;;;;;;;1.60;1.50;;;;;;;18.10;47.68;96094.72;4844414;29;20331;-83
2021/12/25 07:57:35;;;;;;;1.53;1.43;;;;;;;18.74;47.99;96207.91;4844875;29;20294;-80
2021/12/25 08:00:04;;;;;;;1.80;1.70;;;;;;;18.29;47.74;96125.59;4875413;29;20282;-84
2021/12/25 08:02:30;;;;;;;1.60;1.50;;;;;;;18.12;47.61;96094.75;4860032;29;20211;-84
2021/12/25 08:04:57;;;;;;;1.70;1.60;;;;;;;17.81;47.39;96046.66;4862699;29;20226;-83
2021/12/25 08:07:27;;;;;;;1.70;1.60;;;;;;;18.12;47.60;96105.75;4863665;29;20221;-83
2021/12/25 08:10:01;;;;;;;1.70;1.60;;;;;;;17.79;47.68;96045.75;4862856;29;20784;-83
2021/12/25 08:12:28;;;;;;;1.60;1.50;;;;;;;18.39;47.68;96143.63;4879053;29;20643;-83
2021/12/25 08:14:55;;;;;;;1.70;1.60;;;;;;;18.58;47.47;96172.81;4847245;29;20341;-83
2021/12/25 08:17:21;;;;;;;1.70;1.60;;;;;;;18.14;47.71;96109.19;4895332;29;20660;-85
2021/12/25 08:19:48;;;;;;;2.00;1.90;;;;;;;18.26;47.62;96120.44;4847591;29;20238;-83
2021/12/25 08:22:14;;;;;;;1.73;1.63;;;;;;;18.41;47.81;96146.22;4878301;29;20265;-83
2021/12/25 08:24:41;;;;;;;1.70;1.60;;;;;;;17.85;47.58;96056.91;4847037;29;20206;-81
2021/12/25 08:27:07;;;;;;;1.80;1.70;;;;;;;18.34;47.80;96131.59;4862914;29;20256;-84
2021/12/25 08:29:36;;;;;;;1.70;1.60;;;;;;;18.33;48.09;96130.78;4847153;29;20301;-83
2021/12/25 08:32:07;;;;;;;1.77;1.67;;;;;;;18.32;47.70;96136.66;4849437;29;20222;-84
2021/12/25 08:34:33;;;;;;;1.70;1.60;;;;;;;18.13;47.57;96121.88;4846808;29;20304;-83
2021/12/25 08:37:00;;;;;;;1.80;1.70;;;;;;;18.12;47.73;96094.75;4847023;29;20763;-80
2021/12/25 08:39:26;;;;;;;1.47;1.37;;;;;;;18.42;47.76;96140.28;4877874;29;20653;-83
2021/12/25 08:42:00;;;;;;;1.47;1.37;;;;;;;18.16;47.90;96101.59;4877820;29;20241;-83
2021/12/25 08:44:54;;;;;;;1.53;1.43;;;;;;;18.04;47.71;96084.44;4838062;29;20289;-84
2021/12/25 08:47:21;;;;;;;1.70;1.60;;;;;;;18.23;47.90;96115.31;4881101;29;20277;-84
2021/12/25 08:49:47;;;;;;;1.70;1.60;;;;;;;18.27;47.88;96128.94;4877850;29;20318;-85
2021/12/25 08:52:15;;;;;;;1.63;1.53;;;;;;;18.07;47.73;96102.28;4862294;29;20262;-84
2021/12/25 08:54:42;;;;;;;1.80;1.70;;;;;;;18.12;47.77;96122.72;4861655;29;20241;-83
2021/12/25 08:57:09;;;;;;;1.70;1.60;;;;;;;18.33;48.01;96135.84;4862357;29;20572;-81
2021/12/25 08:59:36;;;;;;;1.67;1.57;;;;;;;18.05;47.58;96100.50;4862616;29;20290;-83
2021/12/25 09:02:05;;;;;;;1.70;1.60;;;;;;;18.54;47.63;96182.09;4861693;29;20214;-83
2021/12/25 09:04:32;;;;;;;1.60;1.50;;;;;;;17.59;47.69;96026.72;4832567;29;20203;-83
2021/12/25 09:06:58;;;;;;;1.73;1.63;;;;;;;18.16;47.57;96127.88;4843340;29;20278;-83
2021/12/25 09:09:25;;;;;;;1.60;1.50;;;;;;;18.42;47.61;96169.13;4843409;29;20219;-83
2021/12/25 09:11:51;;;;;;;1.90;1.80;;;;;;;17.77;47.77;96053.34;4854350;29;20253;-83
2021/12/25 09:14:18;;;;;;;1.70;1.60;;;;;;;18.30;47.87;96147.66;4842959;29;20278;-83
2021/12/25 09:16:45;;;;;;;1.80;1.70;;;;;;;18.28;47.74;96150.16;4858746;29;20313;-85
2021/12/25 09:19:11;;;;;;;1.70;1.60;;;;;;;17.61;47.84;96037.75;4858214;29;20211;-83
2021/12/25 09:21:38;;;;;;;1.90;1.80;;;;;;;18.50;47.59;96200.63;4842968;29;20247;-84
2021/12/25 09:24:05;;;;;;;1.70;1.60;;;;;;;18.33;47.81;96165.50;4857852;29;20942;-82
2021/12/25 09:26:31;;;;;;;1.60;1.50;;;;;;;18.16;47.74;96129.56;4858018;29;20784;-83
2021/12/25 09:28:58;;;;;;;1.50;1.40;;;;;;;18.13;47.91;96134.59;4858261;29;21094;-83
2021/12/25 09:31:24;;;;;;;1.60;1.50;;;;;;;18.56;47.78;96218.56;4843465;29;20302;-82
2021/12/25 09:33:52;;;;;;;1.90;1.80;;;;;;;18.33;47.78;96181.63;4842838;29;20743;-83
2021/12/25 09:36:19;;;;;;;1.80;1.70;;;;;;;18.23;48.06;96158.53;4857532;29;20226;-83
2021/12/25 09:38:46;;;;;;;1.97;1.87;;;;;;;18.19;47.91;96149.97;4842787;29;20656;-84
2021/12/25 09:41:13;;;;;;;1.67;1.57;;;;;;;18.72;47.90;96242.66;4842750;29;20210;-82
2021/12/25 09:43:40;;;;;;;1.83;1.73;;;;;;;18.21;47.72;96158.50;4873219;29;20293;-80
2021/12/25 09:46:07;;;;;;;1.87;1.77;;;;;;;18.12;48.01;96141.34;4873454;29;20788;-83
2021/12/25 09:48:34;;;;;;;1.80;1.70;;;;;;;18.31;47.47;96174.78;4872936;29;20701;-83
2021/12/25 09:51:01;;;;;;;1.90;1.70;;;;;;;17.99;47.95;96131.75;4858130;29;20298;-82
2021/12/25 09:53:28;;;;;;;1.70;1.60;;;;;;;18.32;48.17;96181.59;4857355;29;20281;-81
2021/12/25 09:55:55;;;;;;;2.03;1.83;;;;;;;18.59;47.92;96225.44;4858203;29;20262;-83
2021/12/25 09:58:22;;;;;;;1.77;1.67;;;;;;;18.06;47.92;96137.84;4857766;29;20242;-83
2021/12/25 10:00:49;;;;;;;1.80;1.70;;;;;;;17.86;47.76;96106.06;4842970;29;20217;-83
2021/12/25 10:03:21;;;;;;;1.90;1.80;;;;;;;18.36;48.05;96173.19;4862484;29;20289;-84
2021/12/25 10:05:49;;;;;;;1.60;1.50;;;;;;;18.27;47.82;96158.63;4845242;29;20226;-83
2021/12/25 10:08:20;;;;;;;1.43;1.33;;;;;;;17.25;47.61;95993.78;4845521;29;20287;-80
2021/12/25 10:10:47;;;;;;;1.80;1.70;;;;;;;18.73;47.79;96237.59;4846061;29;20652;-83
2021/12/25 10:13:20;;;;;;;1.70;1.60;;;;;;;18.73;47.59;96240.13;4875691;29;20262;-82
2021/12/25 10:15:47;;;;;;;1.70;1.60;;;;;;;17.37;47.91;96025.38;4875845;29;20787;-83
2021/12/25 10:18:14;;;;;;;1.70;1.60;;;;;;;18.37;47.77;96178.34;4845934;29;20237;-83
2021/12/25 10:20:41;;;;;;;1.70;1.60;;;;;;;18.15;47.84;96145.66;4860720;29;20249;-84
2021/12/25 10:23:11;;;;;;;1.50;1.40;;;;;;;17.81;47.62;96093.25;4845753;29;20268;-83
2021/12/25 10:25:45;;;;;;;1.60;1.50;;;;;;;18.08;47.67;96142.13;4892597;29;20313;-82
2021/12/25 10:28:13;;;;;;;2.10;1.90;;;;;;;18.31;47.73;96192.56;4876232;29;20661;-83
2021/12/25 10:30:53;;;;;;;1.57;1.47;;;;;;;18.07;47.98;96137.00;4860907;29;20586;-82
2021/12/25 10:33:29;;;;;;;1.60;1.50;;;;;;;18.31;47.84;96187.50;4861731;29;20317;-83
2021/12/25 10:35:58;;;;;;;1.90;1.80;;;;;;;18.13;48.07;96148.16;4860895;29;20309;-85
2021/12/25 10:38:24;;;;;;;1.70;1.60;;;;;;;18.50;47.85;96202.34;4861198;29;20693;-83
2021/12/25 10:41:14;;;;;;;1.80;1.70;;;;;;;18.48;47.74;96222.66;4845117;29;20269;-82
2021/12/25 10:43:42;;;;;;;1.80;1.70;;;;;;;18.37;47.75;96183.44;4861548;29;20245;-83
2021/12/25 10:46:09;;;;;;;1.77;1.67;;;;;;;18.09;48.01;96135.38;4875935;29;20234;-82
2021/12/25 10:48:36;;;;;;;1.70;1.60;;;;;;;18.48;48.18;96196.38;4875870;29;20210;-83
2021/12/25 10:51:02;;;;;;;1.70;1.60;;;;;;;18.27;47.93;96159.47;4845270;29;20657;-83
2021/12/25 10:53:31;;;;;;;1.80;1.70;;;;;;;18.27;47.88;96163.69;4844904;29;20320;-83
2021/12/25 10:56:13;;;;;;;2.00;1.70;;;;;;;18.29;47.79;96162.03;4875928;29;20294;-83
2021/12/25 10:58:41;;;;;;;2.00;1.80;;;;;;;18.18;48.08;96146.56;4876033;29;20216;-83
2021/12/25 11:01:09;;;;;;;1.80;1.70;;;;;;;17.96;47.63;96101.19;4876156;29;20501;-83
2021/12/25 11:03:37;;;;;;;1.90;1.80;;;;;;;18.18;47.79;96144.00;4837462;29;20215;-83
2021/12/25 11:06:09;;;;;;;1.70;1.60;;;;;;;18.33;47.58;96173.13;4826890;29;20396;-83
2021/12/25 11:08:36;;;;;;;1.80;1.70;;;;;;;18.07;47.82;96127.72;4835573;29;20250;-83
2021/12/25 11:11:08;;;;;;;1.80;1.70;;;;;;;18.37;47.77;96177.44;4842127;29;20617;-83
2021/12/25 11:13:41;;;;;;;2.00;1.70;;;;;;;18.71;48.10;96229.06;4841704;29;20635;-83
2021/12/25 11:16:11;;;;;;;1.90;1.80;;;;;;;18.71;47.82;96218.03;4872535;29;20313;-83
2021/12/25 11:19:06;;;;;;;1.80;1.70;;;;;;;18.72;48.18;96219.75;4876160;29;20210;-83
2021/12/25 11:21:43;;;;;;;1.60;1.50;;;;;;;18.58;47.78;96205.88;4876257;29;20612;-83
2021/12/25 11:24:15;;;;;;;1.90;1.80;;;;;;;18.72;47.86;96222.28;4860810;29;20207;-83
2021/12/25 11:26:44;;;;;;;1.70;1.60;;;;;;;18.06;47.91;96146.31;4875847;29;20269;-83
2021/12/25 11:29:12;;;;;;;1.60;1.50;;;;;;;16.99;47.61;95918.78;4860815;29;20294;-83
2021/12/25 11:31:40;;;;;;;1.60;1.50;;;;;;;18.72;47.60;96210.44;4860962;29;20306;-80
2021/12/25 11:34:07;;;;;;;1.40;1.30;;;;;;;18.17;47.97;96116.00;4859897;29;20817;-84
2021/12/25 11:36:37;;;;;;;1.83;1.73;;;;;;;18.10;47.54;96107.44;4860421;29;20665;-83
2021/12/25 11:39:05;;;;;;;1.73;1.63;;;;;;;18.30;47.74;96129.84;4844784;29;20297;-83
2021/12/25 11:41:32;;;;;;;1.70;1.60;;;;;;;17.77;47.91;96038.09;4845710;29;20301;-84
2021/12/25 11:44:02;;;;;;;1.70;1.60;;;;;;;18.27;47.62;96128.94;4860026;29;20243;-83
2021/12/25 11:46:39;;;;;;;1.70;1.60;;;;;;;18.23;47.97;96113.59;4861068;29;20325;-84
2021/12/25 11:49:10;;;;;;;1.90;1.80;;;;;;;18.15;48.12;96104.97;4844892;29;20212;-83
2021/12/25 11:51:39;;;;;;;1.60;1.50;;;;;;;17.47;47.71;95993.47;4845412;29;20243;-84
2021/12/25 11:57:11;;;;;;;1.70;1.60;;;;;;;18.25;47.80;96127.22;4875847;29;20598;-80
2021/12/25 11:59:49;;;;;;;1.70;1.60;;;;;;;17.25;47.94;95954.03;4846679;29;20211;-83
2021/12/25 12:02:38;;;;;;;1.70;1.60;;;;;;;18.72;47.99;96204.47;4860597;29;20732;-83
2021/12/25 12:05:24;;;;;;;1.60;1.50;;;;;;;18.71;48.00;96206.16;4874846;29;20310;-84
2021/12/25 12:08:11;;;;;;;1.90;1.80;;;;;;;18.04;48.13;96091.19;4874731;29;20250;-83
2021/12/25 12:10:43;;;;;;;1.70;1.60;;;;;;;18.70;48.02;96196.81;4845026;29;20246;-82
2021/12/25 12:13:27;;;;;;;2.03;1.93;;;;;;;18.29;48.00;96133.22;4874742;29;20313;-84
2021/12/25 12:15:57;;;;;;;1.97;1.87;;;;;;;18.26;48.06;96123.00;4844636;29;20242;-85
2021/12/25 12:18:24;;;;;;;1.80;1.70;;;;;;;18.70;47.80;96199.34;4860367;29;20547;-83
2021/12/25 12:21:17;;;;;;;1.70;1.60;;;;;;;18.23;47.89;96122.09;4871489;29;20217;-83
2021/12/25 12:26:14;;;;;;;1.50;1.40;;;;;;;18.27;48.20;96121.31;4889839;29;20239;-83
2021/12/25 12:28:47;;;;;;;1.67;1.57;;;;;;;17.47;48.11;95989.22;4827606;29;20338;-84
2021/12/25 12:31:36;;;;;;;1.70;1.60;;;;;;;18.70;48.13;96196.81;4873257;29;20305;-84
2021/12/25 12:34:26;;;;;;;1.90;1.80;;;;;;;18.70;48.18;96209.53;4874352;29;20325;-83
2021/12/25 12:36:52;;;;;;;1.77;1.67;;;;;;;18.12;48.28;96113.38;4874658;29;20282;-82
2021/12/25 12:39:19;;;;;;;1.70;1.60;;;;;;;18.07;48.20;96098.88;4859352;29;20254;-83
2021/12/25 12:41:54;;;;;;;1.80;1.70;;;;;;;18.04;47.84;96092.06;4858741;29;20760;-83
2021/12/25 12:44:29;;;;;;;1.70;1.60;;;;;;;18.04;47.99;96092.06;4843948;29;20275;-81
2021/12/25 12:47:02;;;;;;;1.47;1.37;;;;;;;18.02;47.73;96092.84;4843928;29;20245;-83
2021/12/25 12:49:32;;;;;;;1.83;1.73;;;;;;;18.29;47.82;96138.31;4875948;29;20254;-83
2021/12/25 12:52:23;;;;;;;1.67;1.57;;;;;;;18.72;47.77;96215.53;4859966;29;20735;-84
2021/12/25 12:54:56;;;;;;;1.80;1.70;;;;;;;18.08;47.69;96104.00;4874261;29;21009;-83
2021/12/25 12:57:31;;;;;;;1.77;1.67;;;;;;;17.99;48.01;96093.63;4859182;29;20286;-83
2021/12/25 12:59:59;;;;;;;1.70;1.60;;;;;;;18.11;47.73;96120.97;4844024;29;20301;-85
2021/12/25 13:02:28;;;;;;;1.90;1.80;;;;;;;18.34;47.92;96155.38;4858553;29;20612;-82